St Paul Island Airport
PASN : rendu visible

Aérodrome :











RETROUVEZ-NOUS SUR...

 
LOGIN :

S'inscrire | Disclaimer

   EN    FR    IT 

 









Légende :    VFR   VFR Marginal   IFR   IFR Intensif   IFR Très Intensif
Visi : 
Plafond : 
>= 8 km
>= 3000ft
5 à 8 km
1000 à 3000 ft
1500m à 5 km
500 à 1000 ft
800 à 1500m
200 à 500 ft
< 800m
< 200 ft
Symboles :   Orages  Brouillard  Fortes neiges  Fortes précipitations  Vent > 20 kt






- Altitude de l'aérodrome : 63 ft
- Code IATA : SNP


PASN - St Paul Island

DERNIER METAR :
  • 120953Z AUTO 02006KT 1/2SM FG VV001 09/07 A2984 RMK SLP105 T00890067 TSNO $ VIA AUTODIAL

METARs EXPIRÉS :
  • 120853Z AUTO 03007KT 1/4SM FG VV002 09/07 A2984 RMK SLP105 T00890067 401280089 50001 TSNO $ VIA AUTODIAL
  • 120753Z AUTO 03007KT 1/4SM HZ VV002 09/07 A2984 RMK SLP106 T00940067 TSNO $ VIA AUTODIAL

TAF PASN
Valide du 12 à 06h jusqu'au 13 à 06h UTC


120540Z 1206/1306 05010KT P6SM OVC005
FIR PAZA / Amérique du Nord



MET'MAP, la Météo Aéronautique d'un coup d'oeil ! - Copyright ORBIFLY Décembre 2007 - Disclaimer

ORBIFLY MET'MAP TEAM :

Programmation & Développement : Alexandra Zaïnal
Sur une idée originale de : Baudouin d'Aumeries
Assistance à la programmation : Marc-Olivier Méhu
Soutien technique & logistique : Manuel Goepfert

Contact : metmap@orbifly.com




SOURCES & CREDITS :

   NOAA       Earth
Advisory